Middletown, Iowa
Current Conditions -  °F | °C
As of 2:53 PM on Tuesday 27 Jan 2015 (Local Time) from KBRL Reporting Station
Overcast Overcast  
Wind Chill: 26°   Ceiling: 1600
Heat Index: 32°   Visibility: 10mi
Dew Point: 26°   Wind: 7mph
Humidity: 79%   Direction: 50°NE
Pressure: 30.2"   Gusts: NA
Location:  40.83°N, 91.26°W
Report Text: KBRL 272053Z AUTO 05006KT 10SM OVC016 00/M03 A3020 RMK AO2 SLP232 T00001033 53003
Loading
Personal Weather Stations






























Interactive Weather Map New forecast layout! Learn more

10-Day Weather Forecast

Advertisements
Track Severe Weather on mobile